メインページ
METAR-TAF:

METAR-TAF

空港 :

リンデン・ピンドリング国際空港

ナッソー, バハマ

緯度: 25-03N, 経度: 077-28W, 海抜: 3m

現時点の気象観測

当レポートは38分前の09:00(UTC)に作成
南東の風 14kt
気温 27°C
湿度 84%
気圧 1018 hPa
視程10km以上
高度1800ftの雲はほとんどない
高度10000ftの雲は散在している
高度22000ftの千切れ雲あり

METAR: MYNN 200900Z 13014KT 9999 FEW018 SCT100 BKN220 27/24 A3006

時間: 05:38 (09:38 UTC)

予報

当レポートは5時間8分前の04:30(UTC)に作成
予報は20日の 06時(UTC)から 21日の 06時(UTC)まで有効
南/南東の風 20kt
視程10km以上
高度2000ftの雲はほとんどない
高度3000ftの雲は散在している
高度20000ftの千切れ雲あり
確率 30% :
20日の 15時(UTC)から 20日の 21時(UTC)まで一時的に
南/南東の風 15kt、最大25ktの突風を伴う
視程: 9000m
高度1500ftの雲はほとんどない, 積乱雲.
高度3000ftの千切れ雲あり
にわか雨

TAF: MYNN 200430Z 2006/2106 15020KT 9999 FEW020 SCT030 BKN200 PROB30 TEMPO 2015/2021 16015G25KT 9000 SHRA FEW015CB BKN030

4,000以上の空港の気象観測と天気予報(METAR報とTAF報)

利用可能な観測所は地図上に黄色い丸と赤い丸で示す。

丸の上にカーソルを重ねると観測所名を参照できる。

次にクリックすると気象観測と天気予報を参照できる。

マップの切り替え:黒色「×」印の緑ボタンをクリックして拡大、「-」印の緑ボタンをクリックして縮小、緑色の三角印をクリックして隣りの地図に切り替え


METAR-TAF: